Time;durP1;ratioP1;P1;durP2;ratioP2;P2;SDS_P1;SDS_P2;PMS_P1;PMS_P2;Temp;Humidity;BMP_temperature;BMP_pressure;BME280_temperature;BME280_humidity;BME280_pressure;Samples;Min_cycle;Max_cycle;Signal;HPM_P1;HPM_P2
2021/06/17 00:02:05;;;;;;;24.40;11.43;;;;;;;;;;5060703;28;20017;-85
2021/06/17 00:04:31;;;;;;;15.63;11.25;;;;;;;;;;5056860;28;20482;-85
2021/06/17 00:06:56;;;;;;;15.38;11.05;;;;;;;;;;5061502;28;20056;-85
2021/06/17 00:09:21;;;;;;;19.23;10.75;;;;;;;;;;5046663;28;20029;-85
2021/06/17 00:11:46;;;;;;;15.43;10.98;;;;;;;;;;5050386;28;20017;-85
2021/06/17 00:14:12;;;;;;;16.23;10.82;;;;;;;;;;5064412;28;20064;-85
2021/06/17 00:16:37;;;;;;;16.30;11.50;;;;;;;;;;5056921;28;20060;-85
2021/06/17 00:19:02;;;;;;;18.33;12.68;;;;;;;;;;5060633;28;20092;-85
2021/06/17 00:21:27;;;;;;;23.58;14.25;;;;;;;;;;5060308;28;20452;-85
2021/06/17 00:23:53;;;;;;;18.63;12.25;;;;;;;;;;5056940;28;20020;-85
2021/06/17 00:26:18;;;;;;;22.95;13.18;;;;;;;;;;5058927;28;20032;-85
2021/06/17 00:28:43;;;;;;;20.67;12.70;;;;;;;;;;5055153;28;20024;-85
2021/06/17 00:31:09;;;;;;;20.65;12.18;;;;;;;;;;5057989;28;20028;-85
2021/06/17 00:33:34;;;;;;;17.52;11.73;;;;;;;;;;5052283;28;20492;-85
2021/06/17 00:35:59;;;;;;;20.45;11.55;;;;;;;;;;5057254;28;20032;-85
2021/06/17 00:38:24;;;;;;;16.40;11.70;;;;;;;;;;5052037;28;20036;-85
2021/06/17 00:40:51;;;;;;;14.40;11.30;;;;;;;;;;5053696;28;20025;-85
2021/06/17 00:43:16;;;;;;;16.17;11.43;;;;;;;;;;5058302;28;20115;-85
2021/06/17 00:45:43;;;;;;;19.23;11.75;;;;;;;;;;5055431;28;20103;-85
2021/06/17 00:48:09;;;;;;;19.15;12.00;;;;;;;;;;5058854;28;20029;-85
2021/06/17 00:50:36;;;;;;;12.05;9.85;;;;;;;;;;5055572;28;20087;-85
2021/06/17 00:53:01;;;;;;;14.18;10.30;;;;;;;;;;5059332;28;20100;-85
2021/06/17 00:55:27;;;;;;;15.80;9.65;;;;;;;;;;5053275;28;20118;-84
2021/06/17 00:57:52;;;;;;;15.40;10.82;;;;;;;;;;5060411;28;20016;-85
2021/06/17 01:00:18;;;;;;;16.33;10.88;;;;;;;;;;5053164;28;20364;-85
2021/06/17 01:02:43;;;;;;;19.30;11.15;;;;;;;;;;5057994;28;20071;-85
2021/06/17 01:05:10;;;;;;;17.90;11.65;;;;;;;;;;5062422;28;20122;-85
2021/06/17 01:07:47;;;;;;;18.58;10.80;;;;;;;;;;5055102;28;20062;-85
2021/06/17 01:10:23;;;;;;;14.68;11.05;;;;;;;;;;5059638;28;20471;-85
2021/06/17 01:12:57;;;;;;;17.45;12.50;;;;;;;;;;5055694;28;20035;-85
2021/06/17 01:15:22;;;;;;;15.00;11.15;;;;;;;;;;5058127;28;20021;-85
2021/06/17 01:17:58;;;;;;;17.35;11.10;;;;;;;;;;5053867;28;20024;-85
2021/06/17 01:20:24;;;;;;;16.70;11.57;;;;;;;;;;5056602;28;20179;-85
2021/06/17 01:22:50;;;;;;;22.05;11.00;;;;;;;;;;5059467;28;20385;-85
2021/06/17 01:25:30;;;;;;;13.77;10.73;;;;;;;;;;5057285;28;20107;-85
2021/06/17 01:28:01;;;;;;;13.70;10.45;;;;;;;;;;5058586;28;20021;-85
2021/06/17 01:30:27;;;;;;;13.25;10.57;;;;;;;;;;5057017;28;20517;-85
2021/06/17 01:32:57;;;;;;;16.55;11.00;;;;;;;;;;5056014;28;20029;-85
2021/06/17 01:35:25;;;;;;;12.52;10.30;;;;;;;;;;5056964;28;20020;-85
2021/06/17 01:37:52;;;;;;;14.90;10.85;;;;;;;;;;5058483;28;20464;-85
2021/06/17 01:40:18;;;;;;;17.15;10.48;;;;;;;;;;5054642;28;20099;-85
2021/06/17 01:42:43;;;;;;;13.50;10.98;;;;;;;;;;5056838;28;20116;-85
2021/06/17 01:45:09;;;;;;;17.23;10.55;;;;;;;;;;5050581;28;20032;-85
2021/06/17 01:47:36;;;;;;;16.20;10.90;;;;;;;;;;5057325;28;20083;-85
2021/06/17 01:50:02;;;;;;;14.68;11.40;;;;;;;;;;5058936;28;20427;-85
2021/06/17 01:52:29;;;;;;;17.98;10.82;;;;;;;;;;5058382;28;20028;-85
2021/06/17 01:54:56;;;;;;;13.43;10.07;;;;;;;;;;5061161;28;20028;-85
2021/06/17 01:57:22;;;;;;;14.75;11.18;;;;;;;;;;5060527;28;20074;-85
2021/06/17 01:59:49;;;;;;;13.95;11.20;;;;;;;;;;5059482;28;20021;-85
2021/06/17 02:02:15;;;;;;;19.73;10.55;;;;;;;;;;5058502;28;20472;-85
2021/06/17 02:04:41;;;;;;;17.25;11.15;;;;;;;;;;5061699;28;20044;-85
2021/06/17 02:07:08;;;;;;;16.52;10.60;;;;;;;;;;5056219;28;20533;-85
2021/06/17 02:09:33;;;;;;;13.68;10.52;;;;;;;;;;5063715;28;20391;-85
2021/06/17 02:11:58;;;;;;;16.08;12.23;;;;;;;;;;5054500;28;20024;-85
2021/06/17 02:14:24;;;;;;;16.30;11.50;;;;;;;;;;5061972;28;20411;-85
2021/06/17 02:16:51;;;;;;;16.85;10.45;;;;;;;;;;5054502;28;20032;-85
2021/06/17 02:19:17;;;;;;;15.65;10.80;;;;;;;;;;5063324;28;20376;-85
2021/06/17 02:21:44;;;;;;;14.98;10.38;;;;;;;;;;5055627;28;20380;-85
2021/06/17 02:24:10;;;;;;;15.98;10.43;;;;;;;;;;5060323;28;20017;-85
2021/06/17 02:26:39;;;;;;;14.27;10.57;;;;;;;;;;5054380;28;20021;-85
2021/06/17 02:29:06;;;;;;;15.57;10.38;;;;;;;;;;5059492;28;20020;-85
2021/06/17 02:31:33;;;;;;;20.02;10.77;;;;;;;;;;5056016;28;20472;-85
2021/06/17 02:33:58;;;;;;;19.10;11.73;;;;;;;;;;5059467;28;20052;-85
2021/06/17 02:36:26;;;;;;;14.82;11.35;;;;;;;;;;5061639;28;20017;-84
2021/06/17 02:38:53;;;;;;;16.70;11.15;;;;;;;;;;5060170;28;20027;-85
2021/06/17 02:41:20;;;;;;;20.83;11.40;;;;;;;;;;5062406;28;20549;-85
2021/06/17 02:43:46;;;;;;;17.95;11.48;;;;;;;;;;5060664;28;20031;-85
2021/06/17 02:46:12;;;;;;;15.90;11.13;;;;;;;;;;5060646;28;20021;-85
2021/06/17 02:48:37;;;;;;;14.02;11.05;;;;;;;;;;5057396;28;20055;-85
2021/06/17 02:51:03;;;;;;;13.07;9.35;;;;;;;;;;5056570;28;20021;-85
2021/06/17 02:53:28;;;;;;;17.02;10.13;;;;;;;;;;5054832;28;20111;-85
2021/06/17 02:55:54;;;;;;;14.25;10.10;;;;;;;;;;5061372;28;20028;-85
2021/06/17 02:58:38;;;;;;;13.68;9.20;;;;;;;;;;5053596;28;20013;-85
2021/06/17 03:01:09;;;;;;;14.30;9.90;;;;;;;;;;5051424;28;20021;-85
2021/06/17 03:03:41;;;;;;;17.90;10.18;;;;;;;;;;5062694;28;20100;-85
2021/06/17 03:06:15;;;;;;;19.33;11.10;;;;;;;;;;5055110;28;20082;-85
2021/06/17 03:08:42;;;;;;;30.20;10.02;;;;;;;;;;5060611;28;20025;-85
2021/06/17 03:11:09;;;;;;;18.50;10.43;;;;;;;;;;5054709;28;20086;-85
2021/06/17 03:13:35;;;;;;;16.17;10.35;;;;;;;;;;5060056;28;20032;-85
2021/06/17 03:16:01;;;;;;;16.20;10.43;;;;;;;;;;5057572;28;20490;-85
2021/06/17 03:18:26;;;;;;;17.33;9.30;;;;;;;;;;5059305;28;20021;-85
2021/06/17 03:20:52;;;;;;;19.05;10.32;;;;;;;;;;5057885;28;20093;-85
2021/06/17 03:23:20;;;;;;;14.82;9.90;;;;;;;;;;5062139;28;20108;-85
2021/06/17 03:25:53;;;;;;;16.50;9.23;;;;;;;;;;5057383;28;20017;-85
2021/06/17 03:28:19;;;;;;;13.93;10.00;;;;;;;;;;5091649;28;20013;-85
2021/06/17 03:30:48;;;;;;;13.15;8.23;;;;;;;;;;5056889;28;20031;-85
2021/06/17 03:33:16;;;;;;;14.18;9.15;;;;;;;;;;5059830;28;20016;-85
2021/06/17 03:35:41;;;;;;;16.33;9.35;;;;;;;;;;5055971;28;20020;-86
2021/06/17 03:38:07;;;;;;;15.35;8.55;;;;;;;;;;5058837;28;20456;-85
2021/06/17 03:40:33;;;;;;;12.00;8.20;;;;;;;;;;5055606;28;20375;-85
2021/06/17 03:43:00;;;;;;;9.23;7.72;;;;;;;;;;5057862;28;20013;-85
2021/06/17 03:45:26;;;;;;;15.65;7.45;;;;;;;;;;5054526;28;20024;-85
2021/06/17 03:47:52;;;;;;;14.02;7.85;;;;;;;;;;5057591;28;20027;-85
2021/06/17 03:50:19;;;;;;;13.73;7.20;;;;;;;;;;5062725;28;20412;-85
2021/06/17 03:52:45;;;;;;;10.57;7.50;;;;;;;;;;5058183;28;20017;-85
2021/06/17 03:55:17;;;;;;;10.40;6.70;;;;;;;;;;5060029;28;20066;-85
2021/06/17 03:57:42;;;;;;;;;;;;;;;;;;5081836;28;20024;-85
2021/06/17 04:00:08;;;;;;;12.63;6.85;;;;;;;;;;5058710;28;20237;-85
2021/06/17 04:02:33;;;;;;;9.80;6.75;;;;;;;;;;5055671;28;20028;-86
2021/06/17 04:04:58;;;;;;;8.48;6.28;;;;;;;;;;5057936;28;20017;-86
2021/06/17 04:07:25;;;;;;;10.02;6.53;;;;;;;;;;5052010;28;20023;-85
2021/06/17 04:09:51;;;;;;;8.80;6.50;;;;;;;;;;5057225;28;20460;-85
2021/06/17 04:12:18;;;;;;;11.93;6.63;;;;;;;;;;5061018;28;20013;-85
2021/06/17 04:14:48;;;;;;;8.40;6.60;;;;;;;;;;5058401;28;20487;-85
2021/06/17 04:17:17;;;;;;;11.27;6.85;;;;;;;;;;5059143;28;20121;-85
2021/06/17 04:19:43;;;;;;;11.25;6.10;;;;;;;;;;5058953;28;20056;-85
2021/06/17 04:22:09;;;;;;;8.40;5.72;;;;;;;;;;5054681;28;20480;-85
2021/06/17 04:24:38;;;;;;;9.32;6.00;;;;;;;;;;5052668;28;20071;-85
2021/06/17 04:27:04;;;;;;;10.23;5.90;;;;;;;;;;5053976;28;20017;-85
2021/06/17 04:29:33;;;;;;;16.17;6.20;;;;;;;;;;5056535;28;20033;-85
2021/06/17 04:31:58;;;;;;;9.10;6.70;;;;;;;;;;5060773;28;20021;-85
2021/06/17 04:34:23;;;;;;;8.57;5.90;;;;;;;;;;5056071;28;20025;-85
2021/06/17 04:36:50;;;;;;;11.25;6.03;;;;;;;;;;5060064;28;20329;-85
2021/06/17 04:39:16;;;;;;;12.30;6.20;;;;;;;;;;5055496;28;20021;-85
2021/06/17 04:41:41;;;;;;;11.73;5.70;;;;;;;;;;5059896;28;20017;-85
2021/06/17 04:44:07;;;;;;;7.28;5.50;;;;;;;;;;5054857;28;20028;-85
2021/06/17 04:46:33;;;;;;;8.88;6.03;;;;;;;;;;5057261;28;20082;-85
2021/06/17 04:48:59;;;;;;;12.98;5.32;;;;;;;;;;5054197;28;20033;-85
2021/06/17 04:51:26;;;;;;;13.98;6.28;;;;;;;;;;5054046;28;20537;-85
2021/06/17 04:53:54;;;;;;;7.22;5.53;;;;;;;;;;5062689;28;20051;-86
2021/06/17 04:56:19;;;;;;;12.30;5.90;;;;;;;;;;5057340;28;20107;-85
2021/06/17 04:58:49;;;;;;;11.32;5.82;;;;;;;;;;5058438;28;20128;-85
2021/06/17 05:01:17;;;;;;;8.52;5.93;;;;;;;;;;5055368;28;20063;-85
2021/06/17 05:03:42;;;;;;;7.57;5.55;;;;;;;;;;5058908;28;20053;-85
2021/06/17 05:06:09;;;;;;;6.32;5.38;;;;;;;;;;5056620;28;20048;-85
2021/06/17 05:11:18;;;;;;;9.27;5.72;;;;;;;;;;5049011;28;20067;-85
2021/06/17 05:13:44;;;;;;;9.85;5.88;;;;;;;;;;5057039;28;20025;-85
2021/06/17 05:16:09;;;;;;;9.05;5.13;;;;;;;;;;5053797;28;20403;-85
2021/06/17 05:18:34;;;;;;;8.20;4.90;;;;;;;;;;5056248;28;20032;-85
2021/06/17 05:20:59;;;;;;;11.35;5.53;;;;;;;;;;5054769;28;20017;-85
2021/06/17 05:23:25;;;;;;;7.10;4.97;;;;;;;;;;5060054;28;20028;-86
2021/06/17 05:25:51;;;;;;;12.82;5.10;;;;;;;;;;5054405;28;20387;-85
2021/06/17 05:28:18;;;;;;;10.73;5.40;;;;;;;;;;5057745;28;20372;-85
2021/06/17 05:30:45;;;;;;;10.93;5.55;;;;;;;;;;5058377;28;20024;-85
2021/06/17 05:33:10;;;;;;;15.82;5.40;;;;;;;;;;5060383;28;20040;-85
2021/06/17 05:35:36;;;;;;;9.65;5.25;;;;;;;;;;5057753;28;20021;-85
2021/06/17 05:38:01;;;;;;;6.45;4.55;;;;;;;;;;5060110;28;20487;-85
2021/06/17 05:40:27;;;;;;;9.68;4.97;;;;;;;;;;5064589;28;20117;-85
2021/06/17 05:42:52;;;;;;;6.57;5.18;;;;;;;;;;5059394;28;20100;-85
2021/06/17 05:45:17;;;;;;;11.50;5.13;;;;;;;;;;5064900;28;20024;-85
2021/06/17 05:47:42;;;;;;;10.98;5.07;;;;;;;;;;5055890;28;20025;-85
2021/06/17 05:50:08;;;;;;;11.10;5.18;;;;;;;;;;5059599;28;20024;-85
2021/06/17 05:52:33;;;;;;;9.25;5.47;;;;;;;;;;5070594;28;20465;-86
2021/06/17 05:54:58;;;;;;;11.95;4.97;;;;;;;;;;5055710;28;20108;-85
2021/06/17 05:57:23;;;;;;;14.07;5.50;;;;;;;;;;5056664;28;20017;-85
2021/06/17 05:59:49;;;;;;;9.68;5.38;;;;;;;;;;5057527;28;20016;-85
2021/06/17 06:02:14;;;;;;;11.45;5.65;;;;;;;;;;5078446;28;20487;-85
2021/06/17 06:04:40;;;;;;;9.25;5.35;;;;;;;;;;5053263;28;20035;-85
2021/06/17 06:07:05;;;;;;;7.85;5.00;;;;;;;;;;5055449;28;20025;-85
2021/06/17 06:09:30;;;;;;;14.38;4.93;;;;;;;;;;5058569;28;20046;-85
2021/06/17 06:11:55;;;;;;;9.43;4.78;;;;;;;;;;5054907;28;20024;-86
2021/06/17 06:14:21;;;;;;;7.82;4.40;;;;;;;;;;5060732;28;20027;-85
2021/06/17 06:16:47;;;;;;;6.15;4.35;;;;;;;;;;5088023;28;20082;-85
2021/06/17 06:19:12;;;;;;;7.30;4.38;;;;;;;;;;5062641;28;20013;-85
2021/06/17 06:21:38;;;;;;;18.25;5.28;;;;;;;;;;5055244;28;20431;-85
2021/06/17 06:24:03;;;;;;;8.55;4.60;;;;;;;;;;5060333;28;20096;-85
2021/06/17 06:26:28;;;;;;;9.18;4.15;;;;;;;;;;5056527;28;20116;-85
2021/06/17 06:28:53;;;;;;;7.50;3.88;;;;;;;;;;5058241;28;20045;-86
2021/06/17 06:31:19;;;;;;;5.93;4.10;;;;;;;;;;5053192;28;20017;-88
2021/06/17 06:33:44;;;;;;;8.60;4.50;;;;;;;;;;5059067;28;20061;-88
2021/06/17 06:36:09;;;;;;;9.15;4.45;;;;;;;;;;5061564;28;20036;-88
2021/06/17 06:38:34;;;;;;;15.27;4.38;;;;;;;;;;5079354;28;20017;-88
2021/06/17 06:41:00;;;;;;;6.22;4.30;;;;;;;;;;5086392;28;20025;-88
2021/06/17 06:43:25;;;;;;;12.90;4.15;;;;;;;;;;5054427;28;20032;-88
2021/06/17 06:45:50;;;;;;;7.57;3.97;;;;;;;;;;5060506;28;20024;-88
2021/06/17 06:48:17;;;;;;;9.52;4.07;;;;;;;;;;5053424;28;20048;-88
2021/06/17 06:50:42;;;;;;;10.70;4.20;;;;;;;;;;5055542;28;20020;-89
2021/06/17 06:53:07;;;;;;;8.80;4.10;;;;;;;;;;5060985;28;20021;-88
2021/06/17 06:55:32;;;;;;;14.90;4.22;;;;;;;;;;5054292;28;20017;-88
2021/06/17 06:57:58;;;;;;;9.88;3.85;;;;;;;;;;5060317;28;20032;-88
2021/06/17 07:00:23;;;;;;;9.65;3.70;;;;;;;;;;5055715;28;20040;-88
2021/06/17 07:02:48;;;;;;;12.80;3.50;;;;;;;;;;5062797;28;20103;-88
2021/06/17 07:05:14;;;;;;;7.22;3.42;;;;;;;;;;5054980;28;20029;-88
2021/06/17 07:07:40;;;;;;;9.73;2.70;;;;;;;;;;5058167;28;20029;-88
2021/06/17 07:10:07;;;;;;;15.27;3.17;;;;;;;;;;5053956;28;20029;-87
2021/06/17 07:12:32;;;;;;;11.82;3.40;;;;;;;;;;5052676;28;20044;-88
2021/06/17 07:14:58;;;;;;;15.90;3.60;;;;;;;;;;5052710;28;20453;-88
2021/06/17 07:17:24;;;;;;;8.00;3.40;;;;;;;;;;5055937;28;20078;-87
2021/06/17 07:19:49;;;;;;;13.38;3.30;;;;;;;;;;5053999;28;20550;-88
2021/06/17 07:22:14;;;;;;;11.15;3.85;;;;;;;;;;5056132;28;20025;-88
2021/06/17 07:24:39;;;;;;;5.93;3.33;;;;;;;;;;5053445;28;20495;-87
2021/06/17 07:27:05;;;;;;;11.60;3.47;;;;;;;;;;5060271;28;20024;-87
2021/06/17 07:29:30;;;;;;;6.80;3.22;;;;;;;;;;5054795;28;20053;-88
2021/06/17 07:31:56;;;;;;;7.40;3.70;;;;;;;;;;5052632;28;20037;-88
2021/06/17 07:34:22;;;;;;;4.65;3.20;;;;;;;;;;5052490;28;20021;-88
2021/06/17 07:36:47;;;;;;;15.40;4.25;;;;;;;;;;5052649;28;20522;-88
2021/06/17 07:39:13;;;;;;;13.48;3.05;;;;;;;;;;5052794;28;20025;-88
2021/06/17 07:41:38;;;;;;;5.63;3.35;;;;;;;;;;5053825;28;20376;-88
2021/06/17 07:44:04;;;;;;;7.10;3.63;;;;;;;;;;5052214;28;20487;-88
2021/06/17 07:46:30;;;;;;;8.60;3.28;;;;;;;;;;5053760;28;20032;-88
2021/06/17 07:48:58;;;;;;;8.02;3.50;;;;;;;;;;5056179;28;20416;-88
2021/06/17 07:51:23;;;;;;;10.65;3.75;;;;;;;;;;5052741;28;20399;-88
2021/06/17 07:53:48;;;;;;;9.00;3.15;;;;;;;;;;5087264;28;20021;-88
2021/06/17 07:56:13;;;;;;;16.02;3.42;;;;;;;;;;5051401;28;20029;-88
2021/06/17 07:58:42;;;;;;;13.43;3.53;;;;;;;;;;5053135;28;20464;-88
2021/06/17 08:01:08;;;;;;;5.82;3.67;;;;;;;;;;5056783;28;20017;-88
2021/06/17 08:03:33;;;;;;;9.85;4.30;;;;;;;;;;5054751;28;20472;-88
2021/06/17 08:05:58;;;;;;;9.05;3.83;;;;;;;;;;5051677;28;20067;-88
2021/06/17 08:08:24;;;;;;;24.17;4.25;;;;;;;;;;5054088;28;20013;-88
2021/06/17 08:10:49;;;;;;;9.23;3.78;;;;;;;;;;5054480;28;20056;-88
2021/06/17 08:13:14;;;;;;;6.65;3.20;;;;;;;;;;5053203;28;20021;-88
2021/06/17 08:15:39;;;;;;;6.13;3.92;;;;;;;;;;5051783;28;20021;-88
2021/06/17 08:18:05;;;;;;;8.02;3.40;;;;;;;;;;5053378;28;20056;-88
2021/06/17 08:20:30;;;;;;;13.00;3.88;;;;;;;;;;5051766;28;20449;-88
2021/06/17 08:22:56;;;;;;;10.32;3.13;;;;;;;;;;5086779;28;20060;-88
2021/06/17 08:25:21;;;;;;;7.75;3.33;;;;;;;;;;5063107;28;20111;-88
2021/06/17 08:27:46;;;;;;;11.90;3.03;;;;;;;;;;5054731;28;20025;-88
2021/06/17 08:30:14;;;;;;;9.60;3.67;;;;;;;;;;5057717;28;20025;-88
2021/06/17 08:32:39;;;;;;;17.30;3.60;;;;;;;;;;5054156;28;20464;-89
2021/06/17 08:35:05;;;;;;;7.00;3.30;;;;;;;;;;5055324;28;20021;-87
2021/06/17 08:37:30;;;;;;;14.30;3.67;;;;;;;;;;5051352;28;20070;-87
2021/06/17 08:39:57;;;;;;;4.93;3.95;;;;;;;;;;5054988;28;20526;-86
2021/06/17 08:42:26;;;;;;;8.52;3.33;;;;;;;;;;5052115;28;20016;-86
2021/06/17 08:44:52;;;;;;;7.95;3.50;;;;;;;;;;5054409;28;20064;-84
2021/06/17 08:47:17;;;;;;;9.90;4.00;;;;;;;;;;5057275;28;20174;-88
2021/06/17 08:49:43;;;;;;;10.48;3.95;;;;;;;;;;5053503;28;20063;-88
2021/06/17 08:52:11;;;;;;;12.85;4.15;;;;;;;;;;5061126;28;20154;-88
2021/06/17 08:54:36;;;;;;;12.25;4.03;;;;;;;;;;5058592;28;20033;-88
2021/06/17 08:57:02;;;;;;;9.70;3.78;;;;;;;;;;5057092;28;20028;-88
2021/06/17 08:59:37;;;;;;;10.70;3.22;;;;;;;;;;5057899;28;20438;-88
2021/06/17 09:02:06;;;;;;;8.60;3.03;;;;;;;;;;5054970;28;20525;-89
2021/06/17 09:04:31;;;;;;;10.00;3.60;;;;;;;;;;5056613;28;20020;-88
2021/06/17 09:07:01;;;;;;;9.45;3.42;;;;;;;;;;5055572;28;20490;-88
2021/06/17 09:09:33;;;;;;;7.68;3.55;;;;;;;;;;5052878;28;20051;-88
2021/06/17 09:11:58;;;;;;;9.70;4.03;;;;;;;;;;5053805;28;20028;-88
2021/06/17 09:14:26;;;;;;;9.95;4.00;;;;;;;;;;5077981;28;20381;-88
2021/06/17 09:17:03;;;;;;;8.60;3.70;;;;;;;;;;5049419;28;20036;-88
2021/06/17 09:19:42;;;;;;;11.90;4.40;;;;;;;;;;5056515;28;20021;-88
2021/06/17 09:22:09;;;;;;;10.48;3.47;;;;;;;;;;5059689;28;20020;-88
2021/06/17 09:24:34;;;;;;;16.92;4.15;;;;;;;;;;5051513;28;20079;-88
2021/06/17 09:27:19;;;;;;;6.60;3.78;;;;;;;;;;5056796;28;20480;-88
2021/06/17 09:29:45;;;;;;;7.30;3.80;;;;;;;;;;5046465;28;20070;-87
2021/06/17 09:32:16;;;;;;;12.48;3.63;;;;;;;;;;5059539;28;20403;-89
2021/06/17 09:34:42;;;;;;;9.02;4.60;;;;;;;;;;5050727;28;20028;-87
2021/06/17 09:37:07;;;;;;;16.05;4.13;;;;;;;;;;5059517;28;20107;-88
2021/06/17 09:39:33;;;;;;;7.70;4.03;;;;;;;;;;5056030;28;20048;-88
2021/06/17 09:42:09;;;;;;;11.13;3.42;;;;;;;;;;5056236;28;20020;-88
2021/06/17 09:44:41;;;;;;;8.93;4.20;;;;;;;;;;5057826;28;20039;-88
2021/06/17 09:47:06;;;;;;;9.88;4.07;;;;;;;;;;5056173;28;20031;-88
2021/06/17 09:49:34;;;;;;;6.35;3.72;;;;;;;;;;5053543;28;20476;-89
2021/06/17 09:51:59;;;;;;;4.90;3.50;;;;;;;;;;5053796;28;20013;-88
2021/06/17 09:54:36;;;;;;;7.10;3.38;;;;;;;;;;5057930;28;20123;-88
2021/06/17 09:57:05;;;;;;;12.68;4.22;;;;;;;;;;5085091;28;20025;-88
2021/06/17 09:59:49;;;;;;;19.63;4.00;;;;;;;;;;5057028;28;20027;-88
2021/06/17 10:02:21;;;;;;;9.02;3.40;;;;;;;;;;5053535;28;20540;-88
2021/06/17 10:04:47;;;;;;;8.07;3.80;;;;;;;;;;5042780;28;20037;-88
2021/06/17 10:07:12;;;;;;;8.02;3.90;;;;;;;;;;5054125;28;20404;-89
2021/06/17 10:09:38;;;;;;;12.55;4.30;;;;;;;;;;5057119;28;20029;-88
2021/06/17 10:12:03;;;;;;;5.57;3.67;;;;;;;;;;5059051;28;20143;-88
2021/06/17 10:14:29;;;;;;;8.93;4.18;;;;;;;;;;5055158;28;20031;-88
2021/06/17 10:16:54;;;;;;;11.35;4.05;;;;;;;;;;5061003;28;20017;-88
2021/06/17 10:19:20;;;;;;;14.25;3.50;;;;;;;;;;5061485;28;20032;-88
2021/06/17 10:21:46;;;;;;;16.65;4.43;;;;;;;;;;5082172;28;20338;-88
2021/06/17 10:24:22;;;;;;;13.75;4.25;;;;;;;;;;5058826;28;20075;-89
2021/06/17 10:26:51;;;;;;;6.18;3.50;;;;;;;;;;5063626;28;20030;-87
2021/06/17 10:29:21;;;;;;;6.05;3.38;;;;;;;;;;5058535;28;20028;-88
2021/06/17 10:31:49;;;;;;;8.85;3.20;;;;;;;;;;5063430;28;20024;-87
2021/06/17 10:34:29;;;;;;;6.60;3.40;;;;;;;;;;5053568;28;20033;-88
2021/06/17 10:37:13;;;;;;;10.45;2.85;;;;;;;;;;5054769;28;20494;-88
2021/06/17 10:39:47;;;;;;;12.95;3.30;;;;;;;;;;5057229;28;20025;-89
2021/06/17 10:42:25;;;;;;;12.23;3.15;;;;;;;;;;5054384;28;20017;-88
2021/06/17 10:44:57;;;;;;;8.75;3.03;;;;;;;;;;5055749;28;20032;-87
2021/06/17 10:47:47;;;;;;;9.63;2.70;;;;;;;;;;5052566;28;20021;-88
2021/06/17 10:50:12;;;;;;;7.78;2.58;;;;;;;;;;5057234;28;20017;-89
2021/06/17 10:52:39;;;;;;;12.87;2.90;;;;;;;;;;5064677;28;20024;-88
2021/06/17 10:55:08;;;;;;;8.60;3.10;;;;;;;;;;5054647;28;20294;-89
2021/06/17 10:57:39;;;;;;;10.57;2.97;;;;;;;;;;5056249;28;20730;-89
2021/06/17 11:00:34;;;;;;;9.57;2.40;;;;;;;;;;5054744;28;20020;-89
2021/06/17 11:03:05;;;;;;;5.60;1.98;;;;;;;;;;5013903;28;20630;-88
2021/06/17 11:05:34;;;;;;;8.27;2.00;;;;;;;;;;5053765;28;20021;-89
2021/06/17 11:08:18;;;;;;;8.88;1.88;;;;;;;;;;5060877;28;20036;-88
2021/06/17 11:10:44;;;;;;;9.52;2.20;;;;;;;;;;5056574;28;20028;-88
2021/06/17 11:13:09;;;;;;;10.10;2.13;;;;;;;;;;5059534;28;20016;-88
2021/06/17 11:15:35;;;;;;;9.68;2.35;;;;;;;;;;5052704;28;20574;-89
2021/06/17 11:18:02;;;;;;;5.82;1.92;;;;;;;;;;5061327;28;20051;-88
2021/06/17 11:20:33;;;;;;;10.60;2.55;;;;;;;;;;5052931;28;20464;-90
2021/06/17 11:22:59;;;;;;;;;;;;;;;;;;5060905;28;20361;-87
2021/06/17 11:25:25;;;;;;;22.90;2.38;;;;;;;;;;5057271;28;19912;-84
2021/06/17 11:27:59;;;;;;;6.63;1.50;;;;;;;;;;5058085;28;20522;-83
2021/06/17 11:30:37;;;;;;;6.75;1.30;;;;;;;;;;5055599;28;20054;-83
2021/06/17 11:33:15;;;;;;;8.90;1.35;;;;;;;;;;5047436;28;20124;-83
2021/06/17 11:35:43;;;;;;;11.98;1.20;;;;;;;;;;5055557;28;20049;-83
2021/06/17 11:38:08;;;;;;;10.48;1.20;;;;;;;;;;5053287;28;20055;-83
2021/06/17 11:40:33;;;;;;;11.33;1.30;;;;;;;;;;5062977;28;20104;-83
2021/06/17 11:42:59;;;;;;;3.50;1.08;;;;;;;;;;5058086;28;20246;-83
2021/06/17 11:45:29;;;;;;;2.88;1.00;;;;;;;;;;5061715;28;20025;-83
2021/06/17 11:47:55;;;;;;;8.32;1.23;;;;;;;;;;5051460;28;20074;-83
2021/06/17 11:50:20;;;;;;;2.90;1.02;;;;;;;;;;5060436;28;20028;-82
2021/06/17 11:52:46;;;;;;;8.35;1.05;;;;;;;;;;5055425;28;20021;-83
2021/06/17 11:55:11;;;;;;;9.60;1.33;;;;;;;;;;5053128;28;20024;-82
2021/06/17 11:57:39;;;;;;;7.90;1.20;;;;;;;;;;5054975;28;20044;-83
2021/06/17 12:00:06;;;;;;;10.55;1.50;;;;;;;;;;5057938;28;20349;-83
2021/06/17 12:02:31;;;;;;;7.40;1.10;;;;;;;;;;5054377;28;20043;-83
2021/06/17 12:05:03;;;;;;;6.85;1.33;;;;;;;;;;5057130;28;20025;-83
2021/06/17 12:07:35;;;;;;;3.08;1.20;;;;;;;;;;5063304;28;20021;-83
2021/06/17 12:10:11;;;;;;;3.63;1.02;;;;;;;;;;5047374;28;20078;-82
2021/06/17 12:12:52;;;;;;;6.20;1.27;;;;;;;;;;5062121;28;20069;-83
2021/06/17 12:15:18;;;;;;;6.85;0.90;;;;;;;;;;5057291;28;20055;-83
2021/06/17 12:17:44;;;;;;;14.15;1.30;;;;;;;;;;5061108;28;20132;-83
2021/06/17 12:20:11;;;;;;;9.40;1.15;;;;;;;;;;5057733;28;20031;-83
2021/06/17 12:22:37;;;;;;;11.57;1.25;;;;;;;;;;5053595;28;20013;-83
2021/06/17 12:25:02;;;;;;;3.35;1.08;;;;;;;;;;5060940;28;20021;-83
2021/06/17 12:27:28;;;;;;;7.32;1.20;;;;;;;;;;5053897;28;20043;-83
2021/06/17 12:29:53;;;;;;;5.32;1.50;;;;;;;;;;5059914;28;20102;-83
2021/06/17 12:32:31;;;;;;;5.47;1.23;;;;;;;;;;5059066;28;20032;-83
2021/06/17 12:35:08;;;;;;;2.80;1.05;;;;;;;;;;5054458;28;20036;-83
2021/06/17 12:37:49;;;;;;;8.60;1.40;;;;;;;;;;5049653;28;20041;-83
2021/06/17 12:40:26;;;;;;;8.35;1.30;;;;;;;;;;5058584;28;20025;-82
2021/06/17 12:43:01;;;;;;;6.63;1.40;;;;;;;;;;5051746;28;20025;-82
2021/06/17 12:45:26;;;;;;;8.20;1.30;;;;;;;;;;5058644;28;20025;-82
2021/06/17 12:47:52;;;;;;;11.00;1.20;;;;;;;;;;5051631;28;20033;-82
2021/06/17 12:53:00;;;;;;;11.05;1.40;;;;;;;;;;5051585;28;20044;-83
2021/06/17 12:55:33;;;;;;;12.45;1.48;;;;;;;;;;5054897;28;20456;-82
2021/06/17 12:58:00;;;;;;;7.53;1.30;;;;;;;;;;5058233;28;20029;-83
2021/06/17 13:00:25;;;;;;;9.52;1.13;;;;;;;;;;5054574;28;20020;-83
2021/06/17 13:02:52;;;;;;;6.18;1.10;;;;;;;;;;5061321;28;20023;-82
2021/06/17 13:05:19;;;;;;;6.68;1.10;;;;;;;;;;5052757;28;20521;-83
2021/06/17 13:08:17;;;;;;;4.80;1.13;;;;;;;;;;5056005;28;20017;-83
2021/06/17 13:10:48;;;;;;;6.53;1.27;;;;;;;;;;5042309;28;20052;-83
2021/06/17 13:13:24;;;;;;;4.07;1.27;;;;;;;;;;5057650;28;20025;-83
2021/06/17 13:15:52;;;;;;;5.03;1.20;;;;;;;;;;5054470;28;20039;-82
2021/06/17 13:18:18;;;;;;;7.15;1.27;;;;;;;;;;5048987;28;20035;-82
2021/06/17 13:20:48;;;;;;;7.45;1.48;;;;;;;;;;5055378;28;20009;-82
2021/06/17 13:23:15;;;;;;;8.00;1.30;;;;;;;;;;5057320;28;20456;-82
2021/06/17 13:25:42;;;;;;;6.72;1.50;;;;;;;;;;5053725;28;20098;-82
2021/06/17 13:28:26;;;;;;;10.50;1.70;;;;;;;;;;5055545;28;20048;-82
2021/06/17 13:30:51;;;;;;;4.25;1.45;;;;;;;;;;5052955;28;20025;-82
2021/06/17 13:33:16;;;;;;;6.53;1.88;;;;;;;;;;5057026;28;20484;-82
2021/06/17 13:35:42;;;;;;;6.03;1.63;;;;;;;;;;5053913;28;20380;-84
2021/06/17 13:38:07;;;;;;;3.05;1.40;;;;;;;;;;5055910;28;20021;-82
2021/06/17 13:40:32;;;;;;;9.32;1.27;;;;;;;;;;5059237;28;20492;-82
2021/06/17 13:42:59;;;;;;;5.40;1.38;;;;;;;;;;5081040;28;20022;-82
2021/06/17 13:45:24;;;;;;;13.18;1.58;;;;;;;;;;5054936;28;20028;-82
2021/06/17 13:47:50;;;;;;;13.63;1.25;;;;;;;;;;5051847;28;20512;-82
2021/06/17 13:50:15;;;;;;;8.77;1.67;;;;;;;;;;5050215;28;20087;-82
2021/06/17 13:52:40;;;;;;;9.88;1.80;;;;;;;;;;5049749;28;20024;-82
2021/06/17 13:55:14;;;;;;;6.17;1.70;;;;;;;;;;5053254;28;20388;-82
2021/06/17 13:57:39;;;;;;;6.75;1.58;;;;;;;;;;5050081;28;20343;-82
2021/06/17 14:00:05;;;;;;;9.02;1.75;;;;;;;;;;5055057;28;20465;-82
2021/06/17 14:02:30;;;;;;;7.70;1.55;;;;;;;;;;5054981;28;20021;-82
2021/06/17 14:04:55;;;;;;;5.28;1.92;;;;;;;;;;5049315;28;20029;-82
2021/06/17 14:07:21;;;;;;;7.40;1.70;;;;;;;;;;5053851;28;20021;-82
2021/06/17 14:09:46;;;;;;;4.47;1.67;;;;;;;;;;5055021;28;20265;-82
2021/06/17 14:12:11;;;;;;;4.10;1.40;;;;;;;;;;5054754;28;20067;-82
2021/06/17 14:14:36;;;;;;;2.47;1.40;;;;;;;;;;5052971;28;20519;-82
2021/06/17 14:17:01;;;;;;;8.90;2.20;;;;;;;;;;5053473;28;20029;-82
2021/06/17 14:19:27;;;;;;;9.98;2.05;;;;;;;;;;5050752;28;20826;-82
2021/06/17 14:21:52;;;;;;;11.05;2.00;;;;;;;;;;5062643;28;20396;-83
2021/06/17 14:24:17;;;;;;;6.85;1.40;;;;;;;;;;5059193;28;20816;-82
2021/06/17 14:26:43;;;;;;;3.88;1.42;;;;;;;;;;5056872;28;20031;-83
2021/06/17 14:29:09;;;;;;;7.40;1.40;;;;;;;;;;5059037;28;20075;-83
2021/06/17 14:31:35;;;;;;;3.03;1.25;;;;;;;;;;5086698;28;20480;-83
2021/06/17 14:34:01;;;;;;;5.07;1.35;;;;;;;;;;5056562;28;20464;-82
2021/06/17 14:36:26;;;;;;;7.20;1.60;;;;;;;;;;5054584;28;20025;-83
2021/06/17 14:38:51;;;;;;;8.25;1.73;;;;;;;;;;5055843;28;20025;-82
2021/06/17 14:41:17;;;;;;;5.13;1.43;;;;;;;;;;5059125;28;20167;-83